createdAt,value
2023-01-28T00:00:58.356Z,1.30
2023-01-28T00:06:03.139Z,1.33
2023-01-28T00:11:11.024Z,1.73
2023-01-28T00:16:14.759Z,1.57
2023-01-28T00:21:17.190Z,1.37
2023-01-28T00:26:19.376Z,1.73
2023-01-28T00:31:24.722Z,1.83
2023-01-28T00:36:28.242Z,1.47
2023-01-28T00:41:30.354Z,1.33
2023-01-28T00:46:33.793Z,0.87
2023-01-28T00:51:36.028Z,1.47
2023-01-28T00:56:38.148Z,1.30
2023-01-28T01:01:42.118Z,1.50
2023-01-28T01:06:44.269Z,1.50
2023-01-28T01:11:46.486Z,1.27
2023-01-28T01:16:49.951Z,1.30
2023-01-28T01:21:52.307Z,1.60
2023-01-28T01:26:54.584Z,1.93
2023-01-28T01:31:58.166Z,1.13
2023-01-28T01:37:00.283Z,1.40
2023-01-28T01:42:02.731Z,1.33
2023-01-28T01:47:06.786Z,1.60
2023-01-28T01:52:12.488Z,1.37
2023-01-28T01:57:20.075Z,1.50
2023-01-28T02:02:24.304Z,1.30
2023-01-28T02:07:27.527Z,1.47
2023-01-28T02:12:34.239Z,1.80
2023-01-28T02:17:38.919Z,1.33
2023-01-28T02:23:07.366Z,1.60
2023-01-28T02:28:20.203Z,1.13
2023-01-28T02:33:31.305Z,1.40
2023-01-28T02:38:39.937Z,1.20
2023-01-28T02:43:45.663Z,1.20
2023-01-28T02:48:47.876Z,1.17
2023-01-28T02:53:57.918Z,1.33
2023-01-28T02:59:06.575Z,2.07
2023-01-28T03:04:15.510Z,2.20
2023-01-28T03:09:19.754Z,2.00
2023-01-28T03:14:25.306Z,1.90
2023-01-28T03:19:27.424Z,2.00
2023-01-28T03:24:33.656Z,1.63
2023-01-28T03:29:37.956Z,1.60
2023-01-28T03:34:40.413Z,1.63
2023-01-28T03:39:42.433Z,1.30
2023-01-28T03:44:45.932Z,1.50
2023-01-28T03:49:49.850Z,1.80
2023-01-28T03:54:51.995Z,1.20
2023-01-28T03:59:55.515Z,1.20
2023-01-28T04:04:57.459Z,1.13
2023-01-28T04:09:59.139Z,1.60
2023-01-28T04:15:02.538Z,1.20
2023-01-28T04:20:05.258Z,1.70
2023-01-28T04:25:08.119Z,1.30
2023-01-28T04:30:12.423Z,1.13
2023-01-28T04:35:15.074Z,1.43
2023-01-28T04:40:17.887Z,1.70
2023-01-28T04:45:21.536Z,1.70
2023-01-28T04:50:23.670Z,1.50
2023-01-28T04:55:25.835Z,1.73
2023-01-28T05:00:29.392Z,1.53
2023-01-28T05:05:31.540Z,1.43
2023-01-28T05:10:33.531Z,1.33
2023-01-28T05:15:37.573Z,1.17
2023-01-28T05:20:39.696Z,1.43
2023-01-28T05:25:41.969Z,1.10
2023-01-28T05:30:45.658Z,1.20
2023-01-28T05:35:47.779Z,1.73
2023-01-28T05:40:50.013Z,1.23
2023-01-28T05:45:53.198Z,1.20
2023-01-28T05:50:55.427Z,1.53
2023-01-28T05:55:57.423Z,1.40
2023-01-28T06:01:00.537Z,1.43
2023-01-28T06:06:02.310Z,1.20
2023-01-28T06:11:04.309Z,2.20
2023-01-28T06:16:08.220Z,2.10
2023-01-28T06:21:10.342Z,1.47
2023-01-28T06:26:12.555Z,1.90
2023-01-28T06:31:16.052Z,1.57
2023-01-28T06:36:18.047Z,2.07
2023-01-28T06:41:20.114Z,1.67
2023-01-28T06:46:23.206Z,2.03
2023-01-28T06:51:24.885Z,2.17
2023-01-28T06:56:26.611Z,1.60
2023-01-28T07:01:30.428Z,2.33
2023-01-28T07:06:32.184Z,2.43
2023-01-28T07:11:33.979Z,3.20
2023-01-28T07:16:37.093Z,3.77
2023-01-28T07:21:39.222Z,2.67
2023-01-28T07:26:41.220Z,2.63
2023-01-28T07:31:44.718Z,3.10
2023-01-28T07:36:46.902Z,3.30
2023-01-28T07:41:49.148Z,3.10
2023-01-28T07:46:52.402Z,3.97
2023-01-28T07:51:54.204Z,2.73
2023-01-28T07:56:56.299Z,1.37
2023-01-28T08:01:59.382Z,1.70
2023-01-28T08:07:01.105Z,2.10
2023-01-28T08:12:03.295Z,1.47
2023-01-28T08:17:06.941Z,1.87
2023-01-28T08:22:08.674Z,2.00
2023-01-28T08:27:10.665Z,1.50
2023-01-28T08:32:13.839Z,1.77
2023-01-28T08:37:15.524Z,1.37
2023-01-28T08:42:19.545Z,1.37
2023-01-28T08:47:22.642Z,1.10
2023-01-28T08:52:24.349Z,1.50
2023-01-28T08:57:26.484Z,1.50
2023-01-28T09:02:32.212Z,1.60
2023-01-28T09:07:35.233Z,1.00
2023-01-28T09:12:37.848Z,1.30
2023-01-28T09:17:41.116Z,1.07
2023-01-28T09:22:42.962Z,1.23
2023-01-28T09:27:45.429Z,0.73
2023-01-28T09:32:51.711Z,1.27
2023-01-28T09:37:57.354Z,1.17
2023-01-28T09:43:15.029Z,1.07
2023-01-28T09:48:21.738Z,0.83
2023-01-28T09:53:27.769Z,1.43
2023-01-28T09:58:30.380Z,0.83
2023-01-28T10:03:47.771Z,1.10
2023-01-28T10:09:13.595Z,1.30
2023-01-28T10:14:27.001Z,0.93
2023-01-28T10:19:33.678Z,0.80
2023-01-28T10:24:40.179Z,0.83
2023-01-28T10:29:42.384Z,0.60
2023-01-28T10:34:46.050Z,0.87
2023-01-28T10:39:48.222Z,0.87
2023-01-28T10:44:51.438Z,0.57
2023-01-28T10:49:59.499Z,0.70
2023-01-28T10:55:03.877Z,0.60
2023-01-28T11:00:22.078Z,0.63
2023-01-28T11:05:27.714Z,0.80
2023-01-28T11:10:32.398Z,0.73
2023-01-28T11:15:34.844Z,0.53
2023-01-28T11:20:42.706Z,0.70
2023-01-28T11:25:44.603Z,0.60
2023-01-28T11:30:53.274Z,0.30
2023-01-28T11:36:03.907Z,0.50
2023-01-28T11:41:05.993Z,0.50
2023-01-28T11:46:21.394Z,0.33
2023-01-28T11:51:36.885Z,0.43
2023-01-28T11:56:53.513Z,0.50
2023-01-28T12:02:38.368Z,0.50
2023-01-28T12:07:47.685Z,0.60
2023-01-28T12:13:07.085Z,0.80
2023-01-28T12:18:22.320Z,0.77
2023-01-28T12:23:35.891Z,0.53
2023-01-28T12:28:54.118Z,1.07
2023-01-28T12:34:16.919Z,0.60
2023-01-28T12:39:34.853Z,0.90
2023-01-28T12:44:43.710Z,1.53
2023-01-28T12:49:50.793Z,1.13
2023-01-28T12:54:59.574Z,0.90
2023-01-28T13:00:16.209Z,1.07
2023-01-28T13:05:25.367Z,1.13
2023-01-28T13:10:36.019Z,0.80
2023-01-28T13:15:42.399Z,0.80
2023-01-28T13:20:49.467Z,1.03
2023-01-28T13:25:54.404Z,0.50
2023-01-28T13:31:03.131Z,1.00
2023-01-28T13:36:21.120Z,0.60
2023-01-28T13:41:24.455Z,0.50
2023-01-28T13:46:45.135Z,0.60
2023-01-28T13:58:42.237Z,0.60
2023-01-28T14:10:40.483Z,0.60
2023-01-28T14:21:50.911Z,0.90
2023-01-28T14:27:01.664Z,0.50
2023-01-28T14:32:06.103Z,0.53
2023-01-28T14:42:57.844Z,0.53
2023-01-28T15:06:45.005Z,0.50
2023-01-28T15:11:50.696Z,0.57
2023-01-28T15:16:54.972Z,0.50
2023-01-28T15:22:26.006Z,0.50
2023-01-28T15:27:29.968Z,0.80
2023-01-28T15:32:33.197Z,0.70
2023-01-28T15:37:35.716Z,1.27
2023-01-28T15:42:37.675Z,0.47
2023-01-28T15:47:40.918Z,0.47
2023-01-28T15:52:43.293Z,0.60
2023-01-28T15:57:45.136Z,0.50
2023-01-28T16:02:50.265Z,0.90
2023-01-28T16:07:53.624Z,1.10
2023-01-28T16:13:05.121Z,0.40
2023-01-28T16:18:22.798Z,0.80
2023-01-28T16:23:27.342Z,1.00
2023-01-28T16:28:29.695Z,0.70
2023-01-28T16:33:33.333Z,0.87
2023-01-28T16:38:35.374Z,1.30
2023-01-28T16:43:37.335Z,2.10
2023-01-28T16:48:40.699Z,1.00
2023-01-28T16:53:43.663Z,1.23
2023-01-28T16:58:46.966Z,1.20
2023-01-28T17:03:50.225Z,0.97
2023-01-28T17:08:53.372Z,1.43
2023-01-28T17:13:55.601Z,1.17
2023-01-28T17:18:58.707Z,0.50
2023-01-28T17:24:01.081Z,0.87
2023-01-28T17:29:03.826Z,1.00
2023-01-28T17:34:06.934Z,1.13
2023-01-28T17:39:09.393Z,1.00
2023-01-28T17:44:13.856Z,1.10
2023-01-28T17:49:18.503Z,1.00
2023-01-28T17:54:23.725Z,1.00
2023-01-28T17:59:26.638Z,0.90
2023-01-28T18:04:30.168Z,1.43
2023-01-28T18:09:31.871Z,1.50
2023-01-28T18:14:34.285Z,1.40
2023-01-28T18:19:46.606Z,1.00
2023-01-28T18:24:48.329Z,1.10
2023-01-28T18:29:50.135Z,1.33
2023-01-28T18:34:53.617Z,1.20
2023-01-28T18:39:56.132Z,1.67
2023-01-28T18:44:59.274Z,2.80
2023-01-28T18:50:04.287Z,3.13
2023-01-28T18:55:07.317Z,4.30
2023-01-28T19:00:10.946Z,3.13
2023-01-28T19:05:14.384Z,4.43
2023-01-28T19:10:16.529Z,5.97
2023-01-28T19:15:18.522Z,4.03
2023-01-28T19:20:21.815Z,1.07
2023-01-28T19:25:51.479Z,1.60
2023-01-28T19:30:53.273Z,1.23
2023-01-28T19:42:10.467Z,2.00
2023-01-28T19:47:12.654Z,1.83
2023-01-28T19:52:14.585Z,2.07
2023-01-28T19:57:17.667Z,2.10
2023-01-28T20:02:19.450Z,1.57
2023-01-28T20:07:39.673Z,1.80
2023-01-28T20:12:42.952Z,1.67
2023-01-28T20:17:44.813Z,1.80
2023-01-28T20:22:47.235Z,2.30
2023-01-28T20:27:50.763Z,1.93
2023-01-28T20:32:52.539Z,1.30
2023-01-28T20:38:16.440Z,1.20
2023-01-28T20:43:50.355Z,1.33
2023-01-28T20:54:35.452Z,1.20
2023-01-28T20:59:38.767Z,1.80
2023-01-28T21:04:41.043Z,1.70
2023-01-28T21:09:43.253Z,2.57
2023-01-28T21:14:46.399Z,2.07
2023-01-28T21:20:07.889Z,1.80
2023-01-28T21:25:23.132Z,2.00
2023-01-28T21:30:26.999Z,1.47
2023-01-28T21:41:57.197Z,1.63
2023-01-28T21:47:18.973Z,1.50
2023-01-28T21:52:26.557Z,1.80
2023-01-28T21:57:28.394Z,1.97
2023-01-28T22:02:44.255Z,1.60
2023-01-28T22:07:48.419Z,2.00
2023-01-28T22:12:51.312Z,2.07
2023-01-28T22:17:54.736Z,1.57
2023-01-28T22:22:56.820Z,1.80
2023-01-28T22:27:58.653Z,1.67
2023-01-28T22:33:01.759Z,2.47
2023-01-28T22:38:19.929Z,2.10
2023-01-28T22:43:21.637Z,2.00
2023-01-28T22:48:25.343Z,2.23
2023-01-28T22:53:27.438Z,2.27
2023-01-28T22:58:31.534Z,2.10
2023-01-28T23:03:36.114Z,2.50
2023-01-28T23:08:37.863Z,2.70
2023-01-28T23:13:39.842Z,2.80
2023-01-28T23:18:43.005Z,2.70
2023-01-28T23:23:44.791Z,2.80
2023-01-28T23:28:46.589Z,3.27
2023-01-28T23:33:50.155Z,2.83
2023-01-28T23:38:52.331Z,3.30
2023-01-28T23:43:54.750Z,3.80
2023-01-28T23:48:58.389Z,3.37
2023-01-28T23:54:00.537Z,4.57
2023-01-28T23:59:03.006Z,3.87
